createdAt,value
2024-05-09T00:00:18.188Z,71.06
2024-05-09T00:01:24.032Z,71.01
2024-05-09T00:02:25.880Z,72.20
2024-05-09T00:03:27.674Z,70.41
2024-05-09T00:04:29.475Z,73.16
2024-05-09T00:05:31.326Z,71.67
2024-05-09T00:06:33.087Z,72.03
2024-05-09T00:07:35.804Z,73.29
2024-05-09T00:08:37.794Z,72.08
2024-05-09T00:09:39.515Z,73.68
2024-05-09T00:10:41.708Z,71.34
2024-05-09T00:11:43.583Z,73.64
2024-05-09T00:12:45.399Z,72.52
2024-05-09T00:13:47.508Z,71.95
2024-05-09T00:14:49.374Z,72.88
2024-05-09T00:15:51.106Z,73.59
2024-05-09T00:16:52.869Z,73.33
2024-05-09T00:17:54.852Z,74.28
2024-05-09T00:18:56.710Z,73.86
2024-05-09T00:19:58.622Z,74.15
2024-05-09T00:21:00.488Z,74.47
2024-05-09T00:22:02.372Z,72.88
2024-05-09T00:23:04.365Z,74.16
2024-05-09T00:24:06.237Z,72.89
2024-05-09T00:25:08.807Z,74.30
2024-05-09T00:26:10.603Z,71.93
2024-05-09T00:27:13.444Z,72.96
2024-05-09T00:28:15.214Z,72.88
2024-05-09T00:29:17.038Z,72.78
2024-05-09T00:30:27.761Z,71.03
2024-05-09T00:31:34.428Z,71.77
2024-05-09T00:32:36.435Z,71.46
2024-05-09T00:33:38.435Z,71.17
2024-05-09T00:34:40.263Z,71.12
2024-05-09T00:35:42.106Z,71.32
2024-05-09T00:36:43.828Z,71.85
2024-05-09T00:37:45.581Z,73.75
2024-05-09T00:38:47.611Z,72.38
2024-05-09T00:39:49.341Z,73.17
2024-05-09T00:40:51.127Z,72.75
2024-05-09T00:41:52.883Z,71.60
2024-05-09T00:42:54.662Z,71.76
2024-05-09T00:43:56.485Z,71.65
2024-05-09T00:44:58.253Z,70.30
2024-05-09T00:46:02.003Z,71.21
2024-05-09T00:47:04.219Z,70.66
2024-05-09T00:48:08.580Z,72.00
2024-05-09T00:49:12.796Z,72.13
2024-05-09T00:50:19.411Z,71.33
2024-05-09T00:51:24.801Z,72.60
2024-05-09T00:52:28.345Z,74.30
2024-05-09T00:53:30.610Z,73.34
2024-05-09T00:54:33.135Z,74.88
2024-05-09T00:55:36.504Z,74.43
2024-05-09T00:56:38.432Z,74.08
2024-05-09T00:57:40.365Z,73.78
2024-05-09T00:58:43.057Z,73.50
2024-05-09T00:59:44.905Z,74.77
2024-05-09T01:00:47.007Z,73.01
2024-05-09T01:01:49.525Z,72.72
2024-05-09T01:02:51.420Z,71.91
2024-05-09T01:03:53.507Z,71.90
2024-05-09T01:04:55.687Z,72.29
2024-05-09T01:05:57.686Z,72.00
2024-05-09T01:06:59.511Z,73.56
2024-05-09T01:08:01.441Z,73.98
2024-05-09T01:09:03.539Z,73.30
2024-05-09T01:10:09.063Z,72.78
2024-05-09T01:11:13.614Z,72.80
2024-05-09T01:12:15.482Z,72.62
2024-05-09T01:13:17.274Z,71.13
2024-05-09T01:14:19.054Z,71.05
2024-05-09T01:15:20.793Z,71.48
2024-05-09T01:16:22.552Z,71.60
2024-05-09T01:17:24.601Z,74.36
2024-05-09T01:18:26.753Z,72.68
2024-05-09T01:19:30.458Z,73.59
2024-05-09T01:20:40.843Z,71.81
2024-05-09T01:21:45.357Z,72.57
2024-05-09T01:22:47.569Z,71.78
2024-05-09T01:23:49.332Z,74.40
2024-05-09T01:24:52.054Z,75.19
2024-05-09T01:25:53.890Z,73.85
2024-05-09T01:26:55.663Z,75.14
2024-05-09T01:27:57.359Z,73.66
2024-05-09T01:28:59.104Z,74.05
2024-05-09T01:30:00.888Z,73.70
2024-05-09T01:31:02.588Z,73.67
2024-05-09T01:32:04.985Z,72.71
2024-05-09T01:33:09.283Z,72.80
2024-05-09T01:34:12.678Z,72.32
2024-05-09T01:35:14.411Z,73.26
2024-05-09T01:36:16.168Z,74.82
2024-05-09T01:37:17.899Z,72.97
2024-05-09T01:38:19.908Z,73.57
2024-05-09T01:39:21.692Z,75.00
2024-05-09T01:40:33.304Z,73.76
2024-05-09T01:41:39.495Z,74.94
2024-05-09T01:42:41.307Z,74.68
2024-05-09T01:43:43.053Z,73.76
2024-05-09T01:44:45.115Z,74.09
2024-05-09T01:45:46.828Z,74.07
2024-05-09T01:46:48.615Z,72.84
2024-05-09T01:47:50.524Z,73.67
2024-05-09T01:48:52.563Z,74.46
2024-05-09T01:49:54.373Z,74.09
2024-05-09T01:50:56.224Z,73.67
2024-05-09T01:51:57.984Z,74.90
2024-05-09T01:52:59.745Z,73.64
2024-05-09T01:54:02.739Z,72.92
2024-05-09T01:55:07.426Z,73.06
2024-05-09T01:56:10.437Z,74.29
2024-05-09T01:57:12.187Z,72.95
2024-05-09T01:58:14.062Z,73.74
2024-05-09T01:59:15.847Z,73.43
2024-05-09T02:00:26.252Z,72.89
2024-05-09T02:01:56.004Z,73.10
2024-05-09T02:02:59.602Z,73.30
2024-05-09T02:04:01.814Z,74.22
2024-05-09T02:05:04.067Z,75.63
2024-05-09T02:06:05.914Z,74.62
2024-05-09T02:07:07.681Z,75.55
2024-05-09T02:08:19.549Z,76.46
2024-05-09T02:09:21.563Z,75.08
2024-05-09T02:10:30.169Z,74.22
2024-05-09T02:11:42.643Z,75.04
2024-05-09T02:12:44.461Z,75.44
2024-05-09T02:13:46.240Z,74.54
2024-05-09T02:14:47.975Z,75.57
2024-05-09T02:15:52.406Z,75.81
2024-05-09T02:16:54.281Z,75.92
2024-05-09T02:17:56.352Z,74.91
2024-05-09T02:18:58.409Z,75.52
2024-05-09T02:20:00.294Z,74.61
2024-05-09T02:21:02.170Z,74.38
2024-05-09T02:22:04.094Z,75.91
2024-05-09T02:23:06.626Z,74.75
2024-05-09T02:24:08.737Z,74.42
2024-05-09T02:25:10.465Z,74.64
2024-05-09T02:26:12.236Z,74.53
2024-05-09T02:27:13.972Z,75.21
2024-05-09T02:28:15.712Z,74.38
2024-05-09T02:29:17.511Z,75.23
2024-05-09T02:30:26.396Z,74.10
2024-05-09T02:31:37.649Z,74.38
2024-05-09T02:32:39.520Z,74.64
2024-05-09T02:33:41.463Z,74.82
2024-05-09T02:34:43.240Z,74.74
2024-05-09T02:35:45.028Z,74.59
2024-05-09T02:36:46.807Z,74.37
2024-05-09T02:37:48.578Z,74.06
2024-05-09T02:38:50.305Z,74.16
2024-05-09T02:39:52.034Z,73.97
2024-05-09T02:40:53.822Z,73.36
2024-05-09T02:41:55.564Z,73.73
2024-05-09T02:42:57.262Z,73.83
2024-05-09T02:43:59.052Z,73.62
2024-05-09T02:45:00.789Z,72.93
2024-05-09T02:46:02.500Z,73.66
2024-05-09T02:47:04.420Z,72.83
2024-05-09T02:48:07.172Z,73.22
2024-05-09T02:49:09.130Z,73.75
2024-05-09T02:50:16.036Z,76.30
2024-05-09T02:51:18.015Z,74.33
2024-05-09T02:52:19.730Z,76.13
2024-05-09T02:53:21.528Z,75.16
2024-05-09T02:54:23.261Z,74.78
2024-05-09T02:55:25.572Z,74.40
2024-05-09T02:56:27.382Z,74.38
2024-05-09T02:57:29.125Z,73.76
2024-05-09T02:58:30.833Z,74.32
2024-05-09T02:59:32.580Z,74.38
2024-05-09T03:00:39.070Z,75.45
2024-05-09T03:01:43.374Z,76.16
2024-05-09T03:02:45.307Z,74.75
2024-05-09T03:03:48.450Z,75.50
2024-05-09T03:04:50.356Z,75.01
2024-05-09T03:05:52.135Z,75.01
2024-05-09T03:06:53.916Z,74.31
2024-05-09T03:07:55.643Z,75.33
2024-05-09T03:08:57.365Z,75.21
2024-05-09T03:09:59.118Z,75.41
2024-05-09T03:11:00.852Z,74.38
2024-05-09T03:12:02.688Z,75.04
2024-05-09T03:13:13.808Z,76.44
2024-05-09T03:14:17.271Z,74.97
2024-05-09T03:15:19.032Z,75.18
2024-05-09T03:16:20.729Z,75.02
2024-05-09T03:17:24.074Z,74.83
2024-05-09T03:18:26.064Z,74.61
2024-05-09T03:19:27.872Z,74.34
2024-05-09T03:20:34.217Z,74.26
2024-05-09T03:21:40.855Z,74.06
2024-05-09T03:22:42.558Z,73.41
2024-05-09T03:23:44.370Z,73.65
2024-05-09T03:24:46.171Z,72.93
2024-05-09T03:25:48.054Z,74.20
2024-05-09T03:26:49.809Z,74.28
2024-05-09T03:27:51.514Z,73.67
2024-05-09T03:28:53.366Z,74.01
2024-05-09T03:29:55.103Z,73.83
2024-05-09T03:30:56.810Z,74.46
2024-05-09T03:32:00.648Z,73.95
2024-05-09T03:33:02.784Z,74.27
2024-05-09T03:34:04.888Z,74.55
2024-05-09T03:35:07.207Z,73.41
2024-05-09T03:36:11.213Z,74.07
2024-05-09T03:37:13.821Z,73.71
2024-05-09T03:38:15.757Z,73.91
2024-05-09T03:39:17.629Z,74.55
2024-05-09T03:40:23.699Z,74.43
2024-05-09T03:41:28.204Z,73.82
2024-05-09T03:42:29.938Z,73.93
2024-05-09T03:43:31.716Z,73.70
2024-05-09T03:44:33.474Z,74.22
2024-05-09T03:45:35.241Z,74.37
2024-05-09T03:46:40.780Z,75.59
2024-05-09T03:47:42.775Z,74.78
2024-05-09T03:48:44.937Z,74.89
2024-05-09T03:49:46.977Z,75.33
2024-05-09T03:50:48.832Z,75.36
2024-05-09T03:51:50.585Z,74.84
2024-05-09T03:52:52.365Z,75.09
2024-05-09T03:53:54.183Z,75.51
2024-05-09T03:54:55.909Z,75.95
2024-05-09T03:55:57.747Z,75.78
2024-05-09T03:56:59.520Z,77.37
2024-05-09T03:58:01.265Z,76.13
2024-05-09T03:59:03.060Z,77.00
2024-05-09T04:00:07.488Z,76.11
2024-05-09T04:01:16.663Z,76.26
2024-05-09T04:02:18.588Z,75.83
2024-05-09T04:03:20.660Z,77.13
2024-05-09T04:04:22.726Z,76.75
2024-05-09T04:05:25.654Z,76.39
2024-05-09T04:06:28.091Z,77.02
2024-05-09T04:07:29.804Z,78.14
2024-05-09T04:08:31.558Z,78.52
2024-05-09T04:09:33.299Z,78.21
2024-05-09T04:10:35.599Z,77.42
2024-05-09T04:11:37.686Z,76.81
2024-05-09T04:12:39.656Z,77.82
2024-05-09T04:13:41.416Z,77.29
2024-05-09T04:14:43.177Z,78.38
2024-05-09T04:15:44.947Z,78.19
2024-05-09T04:16:46.704Z,78.23
2024-05-09T04:17:51.599Z,79.30
2024-05-09T04:18:53.656Z,80.71
2024-05-09T04:19:55.626Z,79.92
2024-05-09T04:20:59.499Z,81.76
2024-05-09T04:22:01.734Z,80.33
2024-05-09T04:23:03.565Z,81.90
2024-05-09T04:24:05.536Z,79.58
2024-05-09T04:25:07.346Z,80.66
2024-05-09T04:26:09.309Z,79.02
2024-05-09T04:27:11.030Z,80.70
2024-05-09T04:28:13.230Z,80.85
2024-05-09T04:29:15.065Z,81.17
2024-05-09T04:30:25.525Z,81.11
2024-05-09T04:31:36.432Z,83.91
2024-05-09T04:32:38.269Z,83.08
2024-05-09T04:33:40.194Z,83.40
2024-05-09T04:34:42.018Z,86.39
2024-05-09T04:35:44.168Z,85.28
2024-05-09T04:36:46.197Z,85.83
2024-05-09T04:37:49.342Z,85.60
2024-05-09T04:38:51.055Z,86.80
2024-05-09T04:39:52.758Z,84.70
2024-05-09T04:40:54.527Z,84.31
2024-05-09T04:41:56.455Z,87.25
2024-05-09T04:42:58.154Z,88.18
2024-05-09T04:43:59.907Z,86.56
2024-05-09T04:45:03.464Z,88.52
2024-05-09T04:46:05.195Z,88.42
2024-05-09T04:47:06.981Z,89.65
2024-05-09T04:48:09.126Z,90.60
2024-05-09T04:49:11.283Z,88.19
2024-05-09T04:50:20.790Z,89.87
2024-05-09T04:51:27.174Z,90.48
2024-05-09T04:52:28.906Z,90.38
2024-05-09T04:53:30.753Z,90.85
2024-05-09T04:54:36.288Z,90.89
2024-05-09T04:55:39.415Z,91.21
2024-05-09T04:56:41.730Z,89.04
2024-05-09T04:57:43.465Z,87.79
2024-05-09T04:58:45.236Z,89.61
2024-05-09T04:59:46.976Z,88.67
2024-05-09T05:00:48.747Z,89.81
2024-05-09T05:01:50.594Z,89.86
2024-05-09T05:02:52.457Z,90.13
2024-05-09T05:03:55.969Z,90.87
2024-05-09T05:04:59.390Z,90.32
2024-05-09T05:06:01.319Z,90.95
2024-05-09T05:07:03.187Z,90.49
2024-05-09T05:08:05.868Z,91.35
2024-05-09T05:09:07.642Z,91.64
2024-05-09T05:10:14.878Z,91.44
2024-05-09T05:11:22.907Z,91.88
2024-05-09T05:12:43.457Z,91.91
2024-05-09T05:13:45.227Z,91.19
2024-05-09T05:14:46.980Z,91.22
2024-05-09T05:15:55.258Z,89.72
2024-05-09T05:16:57.046Z,90.37
2024-05-09T05:17:58.934Z,90.74
2024-05-09T05:19:00.918Z,89.29
2024-05-09T05:20:04.092Z,87.93
2024-05-09T05:21:06.523Z,87.52
2024-05-09T05:22:08.363Z,87.18
2024-05-09T05:23:14.905Z,85.46
2024-05-09T05:24:16.776Z,86.24
2024-05-09T05:25:18.498Z,88.43
2024-05-09T05:26:20.620Z,87.89
2024-05-09T05:27:22.385Z,88.25
2024-05-09T05:28:24.287Z,87.03
2024-05-09T05:29:26.049Z,87.62
2024-05-09T05:30:32.788Z,88.25
2024-05-09T05:31:36.280Z,87.48
2024-05-09T05:32:38.227Z,86.88
2024-05-09T05:33:40.101Z,86.48
2024-05-09T05:34:41.865Z,86.68
2024-05-09T05:35:44.200Z,86.68
2024-05-09T05:36:45.929Z,87.84
2024-05-09T05:37:47.667Z,86.92
2024-05-09T05:38:49.598Z,86.47
2024-05-09T05:39:51.422Z,87.35
2024-05-09T05:40:53.209Z,86.54
2024-05-09T05:41:55.327Z,85.64
2024-05-09T05:42:57.046Z,85.82
2024-05-09T05:43:58.832Z,87.94
2024-05-09T05:45:00.665Z,86.82
2024-05-09T05:46:02.393Z,85.97
2024-05-09T05:47:04.354Z,86.25
2024-05-09T05:48:07.851Z,85.25
2024-05-09T05:49:10.155Z,85.07
2024-05-09T05:50:20.920Z,84.29
2024-05-09T05:51:29.330Z,85.84
2024-05-09T05:52:31.098Z,85.03
2024-05-09T05:53:33.160Z,84.66
2024-05-09T05:54:35.021Z,83.93
2024-05-09T05:55:37.774Z,82.40
2024-05-09T05:56:39.598Z,82.58
2024-05-09T05:57:41.365Z,85.24
2024-05-09T05:58:43.302Z,85.19
2024-05-09T05:59:45.059Z,85.20
2024-05-09T06:00:46.873Z,82.79
2024-05-09T06:01:48.651Z,81.56
2024-05-09T06:02:50.502Z,81.40
2024-05-09T06:03:52.404Z,80.39
2024-05-09T06:04:54.371Z,81.12
2024-05-09T06:05:56.297Z,80.97
2024-05-09T06:06:58.100Z,80.76
2024-05-09T06:07:59.953Z,82.03
2024-05-09T06:09:01.785Z,81.55
2024-05-09T06:10:05.325Z,79.20
2024-05-09T06:11:08.947Z,78.64
2024-05-09T06:12:10.915Z,77.64
2024-05-09T06:13:13.633Z,77.92
2024-05-09T06:14:16.035Z,79.46
2024-05-09T06:15:17.757Z,79.23
2024-05-09T06:16:19.459Z,79.39
2024-05-09T06:17:21.415Z,78.85
2024-05-09T06:18:23.463Z,78.09
2024-05-09T06:19:25.489Z,74.73
2024-05-09T06:20:34.966Z,74.13
2024-05-09T06:21:39.112Z,74.80
2024-05-09T06:22:40.820Z,74.08
2024-05-09T06:23:49.417Z,73.79
2024-05-09T06:24:51.132Z,74.85
2024-05-09T06:25:52.892Z,73.78
2024-05-09T06:26:54.614Z,76.46
2024-05-09T06:27:56.363Z,74.55
2024-05-09T06:29:00.399Z,73.91
2024-05-09T06:30:02.166Z,72.92
2024-05-09T06:31:03.985Z,71.57
2024-05-09T06:32:06.176Z,71.68
2024-05-09T06:33:10.096Z,71.84
2024-05-09T06:34:13.482Z,74.13
2024-05-09T06:35:15.424Z,74.63
2024-05-09T06:36:17.197Z,74.08
2024-05-09T06:37:18.923Z,74.32
2024-05-09T06:38:20.748Z,72.60
2024-05-09T06:39:23.705Z,72.23
2024-05-09T06:40:29.858Z,71.56
2024-05-09T06:41:38.138Z,71.92
2024-05-09T06:42:39.857Z,72.24
2024-05-09T06:43:41.992Z,72.86
2024-05-09T06:44:44.275Z,73.49
2024-05-09T06:45:47.935Z,73.16
2024-05-09T06:46:50.389Z,72.87
2024-05-09T06:47:52.362Z,74.65
2024-05-09T06:48:54.444Z,73.79
2024-05-09T06:49:56.328Z,73.34
2024-05-09T06:50:58.079Z,73.83
2024-05-09T06:51:59.851Z,72.68
2024-05-09T06:53:01.605Z,72.05
2024-05-09T06:54:03.486Z,71.58
2024-05-09T06:55:05.571Z,71.77
2024-05-09T06:56:07.736Z,72.62
2024-05-09T06:57:09.507Z,74.02
2024-05-09T06:58:11.232Z,72.86
2024-05-09T06:59:13.002Z,71.42
2024-05-09T07:00:22.806Z,69.82
2024-05-09T07:01:32.369Z,70.08
2024-05-09T07:02:34.229Z,69.48
2024-05-09T07:03:36.214Z,69.37
2024-05-09T07:04:38.191Z,69.52
2024-05-09T07:05:40.066Z,69.45
2024-05-09T07:06:42.299Z,70.32
2024-05-09T07:07:44.023Z,72.17
2024-05-09T07:08:46.959Z,73.40
2024-05-09T07:09:49.678Z,71.22
2024-05-09T07:10:51.432Z,70.22
2024-05-09T07:11:53.309Z,68.99
2024-05-09T07:12:55.122Z,70.60
2024-05-09T07:13:56.873Z,69.18
2024-05-09T07:14:58.594Z,68.89
2024-05-09T07:16:00.383Z,67.45
2024-05-09T07:17:02.323Z,66.65
2024-05-09T07:18:22.212Z,68.47
2024-05-09T07:19:24.131Z,71.28
2024-05-09T07:20:33.811Z,67.29
2024-05-09T07:21:36.805Z,68.21
2024-05-09T07:22:38.502Z,68.33
2024-05-09T07:23:40.978Z,64.61
2024-05-09T07:24:43.512Z,66.88
2024-05-09T07:25:45.404Z,66.40
2024-05-09T07:26:47.287Z,66.57
2024-05-09T07:27:49.318Z,66.18
2024-05-09T07:28:51.021Z,66.25
2024-05-09T07:29:52.799Z,63.76
2024-05-09T07:30:54.503Z,66.20
2024-05-09T07:31:56.434Z,65.09
2024-05-09T07:32:58.527Z,63.96
2024-05-09T07:34:01.195Z,63.40
2024-05-09T07:35:03.051Z,63.14
2024-05-09T07:36:05.165Z,64.83
2024-05-09T07:37:12.653Z,66.41
2024-05-09T07:38:14.728Z,64.21
2024-05-09T07:39:16.561Z,62.18
2024-05-09T07:40:28.430Z,63.56
2024-05-09T07:41:37.370Z,62.85
2024-05-09T07:42:39.243Z,61.84
2024-05-09T07:43:40.955Z,61.87
2024-05-09T07:44:42.881Z,61.86
2024-05-09T07:45:52.096Z,61.83
2024-05-09T07:53:30.159Z,62.85
2024-05-09T07:53:46.566Z,65.81
2024-05-09T07:54:51.782Z,65.03
2024-05-09T07:55:55.528Z,62.28
2024-05-09T07:56:57.836Z,60.72
2024-05-09T07:57:59.678Z,59.11
2024-05-09T07:59:01.442Z,58.99
2024-05-09T08:00:04.533Z,59.24
2024-05-09T08:01:06.734Z,58.80
2024-05-09T08:02:09.128Z,59.23
2024-05-09T08:03:11.127Z,60.86
2024-05-09T08:04:12.984Z,61.36
2024-05-09T08:05:14.990Z,62.22
2024-05-09T08:06:16.766Z,60.32
2024-05-09T08:07:19.968Z,61.03
2024-05-09T08:08:22.289Z,59.50
2024-05-09T08:09:24.020Z,58.43
2024-05-09T08:10:28.994Z,57.52
2024-05-09T08:11:32.336Z,58.95
2024-05-09T08:12:34.110Z,58.31
2024-05-09T08:13:36.075Z,58.02
2024-05-09T08:14:37.794Z,55.72
2024-05-09T08:15:39.570Z,55.35
2024-05-09T08:16:41.324Z,55.55
2024-05-09T08:17:43.143Z,55.12
2024-05-09T08:18:45.037Z,56.24
2024-05-09T08:19:47.815Z,56.37
2024-05-09T08:20:52.141Z,57.97
2024-05-09T08:21:53.861Z,55.38
2024-05-09T08:22:55.600Z,56.32
2024-05-09T08:23:57.404Z,56.73
2024-05-09T08:24:59.139Z,55.56
2024-05-09T08:26:00.854Z,54.97
2024-05-09T08:27:02.571Z,56.46
2024-05-09T08:28:05.112Z,56.26
2024-05-09T08:29:06.865Z,55.16
2024-05-09T08:30:15.425Z,55.97
2024-05-09T08:31:23.328Z,55.78
2024-05-09T08:32:27.313Z,54.37
2024-05-09T08:33:32.258Z,53.10
2024-05-09T08:34:34.118Z,54.91
2024-05-09T08:35:36.322Z,54.10
2024-05-09T08:36:39.841Z,54.27
2024-05-09T08:37:43.621Z,53.47
2024-05-09T08:38:45.474Z,52.21
2024-05-09T08:39:47.230Z,52.02
2024-05-09T08:40:49.491Z,54.37
2024-05-09T08:41:54.173Z,54.62
2024-05-09T08:42:57.365Z,53.91
2024-05-09T08:43:59.104Z,53.72
2024-05-09T08:45:01.749Z,54.17
2024-05-09T08:46:04.956Z,54.26
2024-05-09T08:47:09.240Z,53.74
2024-05-09T08:48:12.448Z,54.99
2024-05-09T08:49:16.063Z,53.78
2024-05-09T08:50:31.429Z,51.95
2024-05-09T08:51:39.393Z,52.25
2024-05-09T08:52:41.128Z,51.87
2024-05-09T08:53:42.951Z,51.52
2024-05-09T08:54:45.124Z,51.22
2024-05-09T08:55:47.389Z,50.88
2024-05-09T08:56:50.102Z,51.53
2024-05-09T08:57:53.142Z,50.90
2024-05-09T08:59:00.137Z,51.22
2024-05-09T09:00:10.102Z,52.71
2024-05-09T09:01:14.793Z,52.09
2024-05-09T09:02:19.239Z,52.40
2024-05-09T09:03:24.875Z,52.04
2024-05-09T09:04:28.491Z,50.93
2024-05-09T09:05:31.260Z,51.76
2024-05-09T09:06:34.691Z,51.83
2024-05-09T09:07:39.651Z,50.47
2024-05-09T09:08:41.492Z,50.34
2024-05-09T09:09:45.655Z,49.83
2024-05-09T09:10:47.894Z,49.26
2024-05-09T09:11:49.810Z,51.07
2024-05-09T09:12:58.681Z,50.35
2024-05-09T09:14:00.471Z,52.53
2024-05-09T09:15:02.176Z,50.34
2024-05-09T09:16:04.453Z,50.21
2024-05-09T09:17:16.037Z,50.04
2024-05-09T09:18:18.686Z,47.54
2024-05-09T09:19:23.250Z,46.25
2024-05-09T09:20:33.754Z,48.14
2024-05-09T09:21:38.332Z,47.52
2024-05-09T09:22:40.087Z,48.02
2024-05-09T09:23:41.811Z,47.32
2024-05-09T09:24:43.554Z,47.50
2024-05-09T09:25:45.590Z,48.09
2024-05-09T09:26:47.313Z,49.35
2024-05-09T09:27:49.084Z,48.21
2024-05-09T09:28:51.628Z,47.32
2024-05-09T09:29:53.357Z,47.12
2024-05-09T09:31:01.502Z,48.20
2024-05-09T09:32:04.764Z,48.18
2024-05-09T09:33:09.000Z,48.61
2024-05-09T09:34:10.952Z,47.12
2024-05-09T09:35:12.812Z,46.04
2024-05-09T09:36:14.532Z,45.84
2024-05-09T09:37:23.124Z,44.72
2024-05-09T09:38:29.387Z,44.17
2024-05-09T09:39:32.591Z,45.44
2024-05-09T09:40:42.896Z,46.03
2024-05-09T09:41:48.829Z,44.51
2024-05-09T09:42:54.539Z,46.53
2024-05-09T09:43:57.679Z,46.54
2024-05-09T09:45:04.836Z,45.90
2024-05-09T09:46:12.256Z,45.84
2024-05-09T09:47:15.832Z,48.85
2024-05-09T09:48:20.053Z,48.39
2024-05-09T09:49:24.331Z,47.48
2024-05-09T09:50:33.386Z,49.89
2024-05-09T09:51:36.947Z,47.51
2024-05-09T09:52:38.941Z,47.67
2024-05-09T09:53:42.497Z,47.31
2024-05-09T09:54:45.596Z,47.96
2024-05-09T09:55:48.305Z,47.03
2024-05-09T09:56:51.443Z,46.59
2024-05-09T09:57:56.171Z,47.07
2024-05-09T09:58:59.319Z,46.62
2024-05-09T10:00:01.192Z,46.38
2024-05-09T10:01:03.153Z,46.68
2024-05-09T10:02:05.417Z,47.51
2024-05-09T10:03:07.310Z,47.76
2024-05-09T10:04:10.460Z,47.09
2024-05-09T10:05:12.645Z,46.96
2024-05-09T10:06:15.580Z,47.89
2024-05-09T10:07:19.204Z,46.34
2024-05-09T10:08:23.516Z,46.41
2024-05-09T10:09:25.925Z,46.54
2024-05-09T10:10:32.391Z,45.92
2024-05-09T10:11:39.766Z,46.23
2024-05-09T10:13:07.889Z,46.83
2024-05-09T10:14:10.244Z,46.24
2024-05-09T10:15:12.045Z,46.55
2024-05-09T10:16:21.794Z,47.21
2024-05-09T10:17:23.804Z,46.91
2024-05-09T10:18:36.401Z,47.42
2024-05-09T10:19:38.486Z,47.50
2024-05-09T10:20:44.770Z,47.76
2024-05-09T10:21:46.887Z,48.22
2024-05-09T10:22:50.491Z,47.21
2024-05-09T10:24:05.895Z,45.82
2024-05-09T10:25:07.939Z,46.99
2024-05-09T10:26:09.718Z,46.71
2024-05-09T10:27:11.457Z,47.09
2024-05-09T10:28:13.406Z,47.45
2024-05-09T10:29:18.392Z,47.17
2024-05-09T10:30:29.853Z,47.09
2024-05-09T10:31:40.991Z,46.44
2024-05-09T10:32:44.873Z,46.61
2024-05-09T10:33:48.945Z,46.61
2024-05-09T10:35:13.203Z,46.35
2024-05-09T10:36:21.730Z,45.36
2024-05-09T10:37:24.670Z,45.85
2024-05-09T10:38:26.543Z,45.97
2024-05-09T10:39:35.119Z,46.97
2024-05-09T10:40:38.038Z,45.86
2024-05-09T10:41:40.190Z,44.81
2024-05-09T10:42:42.073Z,45.15
2024-05-09T10:43:44.055Z,44.84
2024-05-09T10:44:47.105Z,44.67
2024-05-09T10:45:49.366Z,43.55
2024-05-09T10:46:51.347Z,42.96
2024-05-09T10:47:53.309Z,44.08
2024-05-09T10:48:55.197Z,44.70
2024-05-09T10:49:57.196Z,44.03
2024-05-09T10:50:59.013Z,43.76
2024-05-09T10:52:03.689Z,43.97
2024-05-09T10:53:05.509Z,43.66
2024-05-09T10:54:07.813Z,44.48
2024-05-09T10:55:09.546Z,44.98
2024-05-09T10:56:13.604Z,45.99
2024-05-09T10:57:15.431Z,45.75
2024-05-09T10:58:17.859Z,45.62
2024-05-09T10:59:19.654Z,44.62
2024-05-09T11:00:27.695Z,44.45
2024-05-09T11:01:35.475Z,44.18
2024-05-09T11:02:37.331Z,45.13
2024-05-09T11:03:39.978Z,44.20
2024-05-09T11:04:42.139Z,43.79
2024-05-09T11:05:44.346Z,44.46
2024-05-09T11:06:47.190Z,44.44
2024-05-09T11:07:49.043Z,44.30
2024-05-09T11:08:51.335Z,43.69
2024-05-09T11:09:53.237Z,44.07
2024-05-09T11:10:56.182Z,43.15
2024-05-09T11:11:58.135Z,43.49
2024-05-09T11:12:59.947Z,43.73
2024-05-09T11:14:14.141Z,43.89
2024-05-09T11:15:17.245Z,43.93
2024-05-09T11:16:20.896Z,45.52
2024-05-09T11:17:23.148Z,44.99
2024-05-09T11:18:28.185Z,44.24
2024-05-09T11:19:38.558Z,44.60
2024-05-09T11:20:40.434Z,43.84
2024-05-09T11:21:51.263Z,44.97
2024-05-09T11:22:53.018Z,44.36
2024-05-09T11:23:55.023Z,44.57
2024-05-09T11:24:56.902Z,45.11
2024-05-09T11:25:59.167Z,44.81
2024-05-09T11:27:05.191Z,44.41
2024-05-09T11:28:07.268Z,45.29
2024-05-09T11:29:09.016Z,44.56
2024-05-09T11:30:26.649Z,45.23
2024-05-09T11:31:35.095Z,44.99
2024-05-09T11:32:37.558Z,45.03
2024-05-09T11:33:47.682Z,45.12
2024-05-09T11:34:49.503Z,46.01
2024-05-09T11:35:51.354Z,45.49
2024-05-09T11:36:53.282Z,44.65
2024-05-09T11:37:55.161Z,45.38
2024-05-09T11:38:56.883Z,44.53
2024-05-09T11:39:58.638Z,44.88
2024-05-09T11:41:00.402Z,43.89
2024-05-09T11:42:02.439Z,44.41
2024-05-09T11:43:05.886Z,44.70
2024-05-09T11:44:07.651Z,43.49
2024-05-09T11:45:09.345Z,43.73
2024-05-09T11:46:11.197Z,44.44
2024-05-09T11:47:13.098Z,44.49
2024-05-09T11:48:15.122Z,43.66
2024-05-09T11:49:17.190Z,42.97
2024-05-09T11:50:27.047Z,43.38
2024-05-09T11:51:32.052Z,43.14
2024-05-09T11:53:35.388Z,43.03
2024-05-09T11:55:38.889Z,43.54
2024-05-09T11:56:40.612Z,44.10
2024-05-09T11:57:42.424Z,43.42
2024-05-09T11:58:44.205Z,44.23
2024-05-09T11:59:45.914Z,44.33
2024-05-09T12:00:47.772Z,43.96
2024-05-09T12:01:49.802Z,43.56
2024-05-09T12:02:52.669Z,43.52
2024-05-09T12:03:54.989Z,43.52
2024-05-09T12:04:56.874Z,42.48
2024-05-09T12:05:58.798Z,42.32
2024-05-09T12:07:00.808Z,41.86
2024-05-09T12:08:02.644Z,40.74
2024-05-09T12:09:04.568Z,43.93
2024-05-09T12:10:11.664Z,42.79
2024-05-09T12:11:16.638Z,43.10
2024-05-09T12:12:18.619Z,43.05
2024-05-09T12:13:20.598Z,44.18
2024-05-09T12:14:22.362Z,44.28
2024-05-09T12:15:24.090Z,44.06
2024-05-09T12:16:26.107Z,43.25
2024-05-09T12:17:28.228Z,44.05
2024-05-09T12:18:30.354Z,43.34
2024-05-09T12:19:32.567Z,43.82
2024-05-09T12:20:37.857Z,43.35
2024-05-09T12:21:41.563Z,44.35
2024-05-09T12:22:43.297Z,43.46
2024-05-09T12:23:45.036Z,42.87
2024-05-09T12:24:46.771Z,42.42
2024-05-09T12:25:48.499Z,42.93
2024-05-09T12:26:50.393Z,42.75
2024-05-09T12:27:52.291Z,42.28
2024-05-09T12:28:54.047Z,43.22
2024-05-09T12:29:55.725Z,43.14
2024-05-09T12:30:57.475Z,43.23
2024-05-09T12:31:59.219Z,42.58
2024-05-09T12:33:01.111Z,43.22
2024-05-09T12:34:02.979Z,43.10
2024-05-09T12:35:04.926Z,43.13
2024-05-09T12:36:07.048Z,43.02
2024-05-09T12:37:08.781Z,42.50
2024-05-09T12:38:10.484Z,42.93
2024-05-09T12:39:12.206Z,43.00
2024-05-09T12:40:22.491Z,42.73
2024-05-09T12:41:28.417Z,41.89
2024-05-09T12:42:32.519Z,41.08
2024-05-09T12:43:35.382Z,42.63
2024-05-09T12:44:37.088Z,43.32
2024-05-09T12:45:39.900Z,41.90
2024-05-09T12:46:41.905Z,42.28
2024-05-09T12:47:43.670Z,41.97
2024-05-09T12:48:45.694Z,42.33
2024-05-09T12:49:47.873Z,42.92
2024-05-09T12:50:49.754Z,42.76
2024-05-09T12:51:51.505Z,41.13
2024-05-09T12:52:53.192Z,41.48
2024-05-09T12:53:54.879Z,41.78
2024-05-09T12:54:56.630Z,41.28
2024-05-09T12:56:02.228Z,42.02
2024-05-09T12:57:05.426Z,41.56
2024-05-09T12:58:07.390Z,42.39
2024-05-09T12:59:09.304Z,41.37
2024-05-09T13:00:20.608Z,41.60
2024-05-09T13:01:29.380Z,41.78
2024-05-09T13:02:31.297Z,41.71
2024-05-09T13:03:33.435Z,41.57
2024-05-09T13:04:35.481Z,42.45
2024-05-09T13:05:37.394Z,42.43
2024-05-09T13:06:39.214Z,42.83
2024-05-09T13:07:41.330Z,42.02
2024-05-09T13:08:43.041Z,43.20
2024-05-09T13:09:44.842Z,42.88
2024-05-09T13:10:46.841Z,42.93
2024-05-09T13:11:48.638Z,42.12
2024-05-09T13:12:50.428Z,41.82
2024-05-09T13:13:52.159Z,42.40
2024-05-09T13:14:53.850Z,42.46
2024-05-09T13:15:55.609Z,42.58
2024-05-09T13:16:57.365Z,42.33
2024-05-09T13:18:01.959Z,42.67
2024-05-09T13:19:05.077Z,43.53
2024-05-09T13:20:11.863Z,42.54
2024-05-09T13:21:16.750Z,42.54
2024-05-09T13:22:18.491Z,41.29
2024-05-09T13:23:20.227Z,41.85
2024-05-09T13:24:21.938Z,41.74
2024-05-09T13:25:23.987Z,41.27
2024-05-09T13:26:25.722Z,41.54
2024-05-09T13:27:27.427Z,41.76
2024-05-09T13:28:31.763Z,41.54
2024-05-09T13:29:33.517Z,42.54
2024-05-09T13:30:40.294Z,42.72
2024-05-09T13:31:43.827Z,42.84
2024-05-09T13:32:45.670Z,42.57
2024-05-09T13:33:47.730Z,41.98
2024-05-09T13:34:49.670Z,42.92
2024-05-09T13:35:51.460Z,40.78
2024-05-09T13:36:53.509Z,40.00
2024-05-09T13:37:55.883Z,39.83
2024-05-09T13:38:57.695Z,40.44
2024-05-09T13:40:03.353Z,40.27
2024-05-09T13:41:05.990Z,41.11